McKinney's Hourly Summary for Friday, March 17, 2017
Hour Temp
(f)
RH
(%)
Solar Rad.
(MJ/m2)
Rainfall
(in)
Wind
(mph)
3/17/2017 12:00 AM 64 81 0 0 8.92
3/17/2017 1:00 AM 64 83 0 0 9.03
3/17/2017 2:00 AM 63 87 0.01 0 6.89
3/17/2017 3:00 AM 63 90 0.01 0 7.29
3/17/2017 4:00 AM 65 83 0.01 0 9.88
3/17/2017 5:00 AM 66 80 0 0 9.7
3/17/2017 6:00 AM 66 79 0 0 8.95
3/17/2017 7:00 AM 67 76 0 0 9.55
3/17/2017 8:00 AM 67 77 0.01 0 10.07
3/17/2017 9:00 AM 67 75 0.2 0 10.57
3/17/2017 10:00 AM 68 74 0.55 0 12.38
3/17/2017 11:00 AM 70 69 1.49 0 13.57
3/17/2017 12:00 PM 71 68 1.21 0 13.43
3/17/2017 1:00 PM 72 67 1.17 0 11.51
3/17/2017 2:00 PM 72 63 1.08 0 11.6
3/17/2017 3:00 PM 73 64 1.63 0 13.18
3/17/2017 4:00 PM 73 65 1.13 0 11.96
3/17/2017 5:00 PM 73 65 0.81 0 11.06
3/17/2017 6:00 PM 73 63 0.42 0 10.27
3/17/2017 7:00 PM 73 64 0.19 0 7.64
3/17/2017 8:00 PM 73 64 0.02 0 2.72
3/17/2017 9:00 PM 69 73 0 0 0
3/17/2017 10:00 PM 69 72 0 0 0.02
3/17/2017 11:00 PM 68 72 0 0 0
Data Summary 68 73 9.94 0.00 8.76